sensor_id;sensor_type;location;lat;lon;timestamp;pressure;altitude;pressure_sealevel;temperature;humidity
44481;BME280;30184;42.018;23.670;2022-11-28T00:00:05;91947.16;;;1.90;92.05
44481;BME280;30184;42.018;23.670;2022-11-28T00:02:40;91930.34;;;1.90;92.07
44481;BME280;30184;42.018;23.670;2022-11-28T00:05:10;91932.66;;;1.91;92.09
44481;BME280;30184;42.018;23.670;2022-11-28T00:07:39;91936.81;;;1.88;92.31
44481;BME280;30184;42.018;23.670;2022-11-28T00:10:10;91943.34;;;1.91;92.50
44481;BME280;30184;42.018;23.670;2022-11-28T00:12:39;91941.44;;;1.92;92.45
44481;BME280;30184;42.018;23.670;2022-11-28T00:15:10;91893.00;;;1.33;92.42
44481;BME280;30184;42.018;23.670;2022-11-28T00:17:40;91938.41;;;1.93;92.53
44481;BME280;30184;42.018;23.670;2022-11-28T00:20:10;91938.00;;;1.91;92.35
44481;BME280;30184;42.018;23.670;2022-11-28T00:22:39;91935.69;;;1.90;92.45
44481;BME280;30184;42.018;23.670;2022-11-28T00:25:08;91931.81;;;1.87;92.64
44481;BME280;30184;42.018;23.670;2022-11-28T00:27:37;91913.44;;;1.82;92.62
44481;BME280;30184;42.018;23.670;2022-11-28T00:30:08;91932.25;;;1.89;92.66
44481;BME280;30184;42.018;23.670;2022-11-28T00:32:37;91932.59;;;1.87;92.79
44481;BME280;30184;42.018;23.670;2022-11-28T00:35:08;91928.00;;;1.84;92.76
44481;BME280;30184;42.018;23.670;2022-11-28T00:37:37;91933.72;;;1.86;92.84
44481;BME280;30184;42.018;23.670;2022-11-28T00:40:07;91925.72;;;1.86;92.95
44481;BME280;30184;42.018;23.670;2022-11-28T00:42:36;91929.50;;;1.85;92.87
44481;BME280;30184;42.018;23.670;2022-11-28T00:45:06;91928.34;;;1.83;92.99
44481;BME280;30184;42.018;23.670;2022-11-28T00:47:35;91916.88;;;1.82;93.27
44481;BME280;30184;42.018;23.670;2022-11-28T00:50:06;91882.53;;;1.51;93.16
44481;BME280;30184;42.018;23.670;2022-11-28T00:52:36;91926.47;;;1.83;93.17
44481;BME280;30184;42.018;23.670;2022-11-28T00:55:06;91919.19;;;1.84;93.04
44481;BME280;30184;42.018;23.670;2022-11-28T00:57:35;91945.19;;;1.83;93.30
44481;BME280;30184;42.018;23.670;2022-11-28T01:00:07;91936.75;;;1.81;93.59
44481;BME280;30184;42.018;23.670;2022-11-28T01:02:36;91920.69;;;1.81;93.42
44481;BME280;30184;42.018;23.670;2022-11-28T01:05:06;91910.72;;;1.78;93.50
44481;BME280;30184;42.018;23.670;2022-11-28T01:07:36;91916.88;;;1.82;93.56
44481;BME280;30184;42.018;23.670;2022-11-28T01:10:10;91907.72;;;1.83;93.59
44481;BME280;30184;42.018;23.670;2022-11-28T01:12:39;91905.78;;;1.80;93.56
44481;BME280;30184;42.018;23.670;2022-11-28T01:15:10;91908.88;;;1.86;93.44
44481;BME280;30184;42.018;23.670;2022-11-28T01:17:39;91913.81;;;1.80;93.39
44481;BME280;30184;42.018;23.670;2022-11-28T01:20:09;91914.22;;;1.82;93.62
44481;BME280;30184;42.018;23.670;2022-11-28T01:22:40;91901.59;;;1.83;93.46
44481;BME280;30184;42.018;23.670;2022-11-28T01:25:09;91905.78;;;1.80;93.44
44481;BME280;30184;42.018;23.670;2022-11-28T01:27:38;91906.19;;;1.82;93.38
44481;BME280;30184;42.018;23.670;2022-11-28T01:30:08;91878.13;;;1.69;93.37
44481;BME280;30184;42.018;23.670;2022-11-28T01:32:37;91890.44;;;1.77;93.47
44481;BME280;30184;42.018;23.670;2022-11-28T01:35:07;91887.81;;;1.81;93.46
44481;BME280;30184;42.018;23.670;2022-11-28T01:37:36;91877.13;;;1.81;93.61
44481;BME280;30184;42.018;23.670;2022-11-28T01:40:09;91880.16;;;1.79;93.65
44481;BME280;30184;42.018;23.670;2022-11-28T01:42:39;91880.16;;;1.79;93.92
44481;BME280;30184;42.018;23.670;2022-11-28T01:45:14;91877.47;;;1.79;93.90
44481;BME280;30184;42.018;23.670;2022-11-28T01:47:44;91880.50;;;1.78;93.84
44481;BME280;30184;42.018;23.670;2022-11-28T01:50:14;91873.25;;;1.78;93.81
44481;BME280;30184;42.018;23.670;2022-11-28T01:52:46;91870.59;;;1.78;93.83
44481;BME280;30184;42.018;23.670;2022-11-28T01:55:22;91869.03;;;1.77;93.93
44481;BME280;30184;42.018;23.670;2022-11-28T01:57:54;91881.66;;;1.77;94.07
44481;BME280;30184;42.018;23.670;2022-11-28T02:00:24;91869.81;;;1.78;94.19
44481;BME280;30184;42.018;23.670;2022-11-28T02:02:56;91865.97;;;1.75;93.95
44481;BME280;30184;42.018;23.670;2022-11-28T02:05:26;91855.59;;;1.70;93.82
44481;BME280;30184;42.018;23.670;2022-11-28T02:07:55;91852.97;;;1.74;94.23
44481;BME280;30184;42.018;23.670;2022-11-28T02:10:28;91863.66;;;1.74;94.20
44481;BME280;30184;42.018;23.670;2022-11-28T02:13:16;91845.31;;;1.72;94.16
44481;BME280;30184;42.018;23.670;2022-11-28T02:16:10;91841.09;;;1.71;94.15
44481;BME280;30184;42.018;23.670;2022-11-28T02:18:58;91813.69;;;1.44;94.14
44481;BME280;30184;42.018;23.670;2022-11-28T02:21:46;91821.81;;;1.55;93.95
44481;BME280;30184;42.018;23.670;2022-11-28T02:24:54;91834.84;;;1.57;93.88
44481;BME280;30184;42.018;23.670;2022-11-28T02:30:20;91837.13;;;1.58;94.16
44481;BME280;30184;42.018;23.670;2022-11-28T02:33:00;91837.91;;;1.59;94.42
44481;BME280;30184;42.018;23.670;2022-11-28T02:35:38;91822.91;;;1.47;94.60
44481;BME280;30184;42.018;23.670;2022-11-28T02:38:17;91841.03;;;1.64;94.49
44481;BME280;30184;42.018;23.670;2022-11-28T02:40:55;91834.13;;;1.63;94.49
44481;BME280;30184;42.018;23.670;2022-11-28T02:43:31;91832.25;;;1.67;94.52
44481;BME280;30184;42.018;23.670;2022-11-28T02:46:08;91836.44;;;1.65;94.48
44481;BME280;30184;42.018;23.670;2022-11-28T02:48:44;91819.63;;;1.64;94.56
44481;BME280;30184;42.018;23.670;2022-11-28T02:51:15;91819.94;;;1.59;94.54
44481;BME280;30184;42.018;23.670;2022-11-28T02:53:50;91828.06;;;1.66;94.47
44481;BME280;30184;42.018;23.670;2022-11-28T02:56:21;91823.06;;;1.65;94.45
44481;BME280;30184;42.018;23.670;2022-11-28T02:58:51;91831.50;;;1.67;94.36
44481;BME280;30184;42.018;23.670;2022-11-28T03:01:23;91829.19;;;1.65;94.47
44481;BME280;30184;42.018;23.670;2022-11-28T03:04:11;91824.56;;;1.62;94.27
44481;BME280;30184;42.018;23.670;2022-11-28T03:06:51;91839.44;;;1.60;93.99
44481;BME280;30184;42.018;23.670;2022-11-28T03:09:52;91830.63;;;1.59;93.83
44481;BME280;30184;42.018;23.670;2022-11-28T03:12:30;91734.09;;;0.90;93.80
44481;BME280;30184;42.018;23.670;2022-11-28T03:15:06;91825.28;;;1.56;93.80
44481;BME280;30184;42.018;23.670;2022-11-28T03:17:42;91825.63;;;1.54;93.78
44481;BME280;30184;42.018;23.670;2022-11-28T03:20:20;91824.50;;;1.55;93.63
44481;BME280;30184;42.018;23.670;2022-11-28T03:22:59;91822.97;;;1.54;93.64
44481;BME280;30184;42.018;23.670;2022-11-28T03:25:35;91799.91;;;1.39;93.50
44481;BME280;30184;42.018;23.670;2022-11-28T03:28:10;91821.81;;;1.55;93.19
44481;BME280;30184;42.018;23.670;2022-11-28T03:30:45;91825.28;;;1.56;93.13
44481;BME280;30184;42.018;23.670;2022-11-28T03:33:16;91812.63;;;1.53;93.10
44481;BME280;30184;42.018;23.670;2022-11-28T03:35:53;91826.03;;;1.56;92.95
44481;BME280;30184;42.018;23.670;2022-11-28T03:38:29;91818.28;;;1.44;93.03
44481;BME280;30184;42.018;23.670;2022-11-28T03:41:03;91812.91;;;1.44;92.97
44481;BME280;30184;42.018;23.670;2022-11-28T03:43:38;91821.84;;;1.59;93.05
44481;BME280;30184;42.018;23.670;2022-11-28T03:46:12;91810.59;;;1.39;93.05
44481;BME280;30184;42.018;23.670;2022-11-28T03:48:46;91834.78;;;1.53;93.21
44481;BME280;30184;42.018;23.670;2022-11-28T03:51:21;91830.63;;;1.59;93.03
44481;BME280;30184;42.018;23.670;2022-11-28T03:54:07;91864.97;;;1.54;93.16
44481;BME280;30184;42.018;23.670;2022-11-28T03:56:43;91834.13;;;1.63;93.04
44481;BME280;30184;42.018;23.670;2022-11-28T03:59:17;91829.56;;;1.64;92.97
44481;BME280;30184;42.018;23.670;2022-11-28T04:01:52;91831.41;;;1.60;92.79
44481;BME280;30184;42.018;23.670;2022-11-28T04:04:29;91831.41;;;1.56;92.89
44481;BME280;30184;42.018;23.670;2022-11-28T04:07:09;91836.75;;;1.56;93.12
44481;BME280;30184;42.018;23.670;2022-11-28T04:09:47;91832.53;;;1.55;93.27
44481;BME280;30184;42.018;23.670;2022-11-28T04:12:22;91835.19;;;1.55;93.36
44481;BME280;30184;42.018;23.670;2022-11-28T04:15:00;91835.97;;;1.56;93.55
44481;BME280;30184;42.018;23.670;2022-11-28T04:17:34;91835.19;;;1.55;93.60
44481;BME280;30184;42.018;23.670;2022-11-28T04:20:11;91848.22;;;1.57;93.64
44481;BME280;30184;42.018;23.670;2022-11-28T04:22:46;91847.44;;;1.56;93.76
44481;BME280;30184;42.018;23.670;2022-11-28T04:25:18;91851.66;;;1.57;93.79
44481;BME280;30184;42.018;23.670;2022-11-28T04:27:56;91847.44;;;1.56;93.93
44481;BME280;30184;42.018;23.670;2022-11-28T04:30:27;91845.53;;;1.57;93.95
44481;BME280;30184;42.018;23.670;2022-11-28T04:32:59;91845.91;;;1.55;93.86
44481;BME280;30184;42.018;23.670;2022-11-28T04:35:32;91844.28;;;1.47;93.91
44481;BME280;30184;42.018;23.670;2022-11-28T04:38:06;91823.84;;;1.32;93.92
44481;BME280;30184;42.018;23.670;2022-11-28T04:40:40;91857.31;;;1.52;93.99
44481;BME280;30184;42.018;23.670;2022-11-28T04:43:17;91845.06;;;1.51;94.12
44481;BME280;30184;42.018;23.670;2022-11-28T04:45:50;91871.81;;;1.47;93.84
44481;BME280;30184;42.018;23.670;2022-11-28T04:48:21;91841.28;;;1.52;94.01
44481;BME280;30184;42.018;23.670;2022-11-28T04:50:57;91861.13;;;1.51;94.04
44481;BME280;30184;42.018;23.670;2022-11-28T04:53:33;91851.56;;;1.50;94.02
44481;BME280;30184;42.018;23.670;2022-11-28T04:56:06;91853.09;;;1.51;94.01
44481;BME280;30184;42.018;23.670;2022-11-28T04:58:41;91853.47;;;1.49;93.88
44481;BME280;30184;42.018;23.670;2022-11-28T05:01:16;91837.22;;;1.32;93.83
44481;BME280;30184;42.018;23.670;2022-11-28T05:03:47;91852.31;;;1.47;93.86
44481;BME280;30184;42.018;23.670;2022-11-28T05:06:28;91851.19;;;1.48;93.87
44481;BME280;30184;42.018;23.670;2022-11-28T05:08:59;91849.63;;;1.47;93.67
44481;BME280;30184;42.018;23.670;2022-11-28T05:11:28;91856.13;;;1.46;93.60
44481;BME280;30184;42.018;23.670;2022-11-28T05:13:58;91851.13;;;1.44;93.71
44481;BME280;30184;42.018;23.670;2022-11-28T05:16:27;91853.03;;;1.44;93.70
44481;BME280;30184;42.018;23.670;2022-11-28T05:18:56;91855.34;;;1.45;93.81
44481;BME280;30184;42.018;23.670;2022-11-28T05:21:25;91846.16;;;1.43;93.75
44481;BME280;30184;42.018;23.670;2022-11-28T05:23:54;91848.03;;;1.42;93.81
44481;BME280;30184;42.018;23.670;2022-11-28T05:26:24;91846.50;;;1.41;93.87
44481;BME280;30184;42.018;23.670;2022-11-28T05:28:54;91852.63;;;1.42;93.72
44481;BME280;30184;42.018;23.670;2022-11-28T05:31:23;91855.28;;;1.42;93.92
44481;BME280;30184;42.018;23.670;2022-11-28T05:33:53;91851.50;;;1.43;93.62
44481;BME280;30184;42.018;23.670;2022-11-28T05:36:22;91862.59;;;1.45;93.74
44481;BME280;30184;42.018;23.670;2022-11-28T05:38:51;91858.38;;;1.44;93.56
44481;BME280;30184;42.018;23.670;2022-11-28T05:41:22;91857.97;;;1.42;93.61
44481;BME280;30184;42.018;23.670;2022-11-28T05:43:54;91836.84;;;1.30;93.66
44481;BME280;30184;42.018;23.670;2022-11-28T05:46:24;91862.25;;;1.46;93.49
44481;BME280;30184;42.018;23.670;2022-11-28T05:48:53;91858.03;;;1.45;93.29
44481;BME280;30184;42.018;23.670;2022-11-28T05:51:22;91858.03;;;1.45;93.22
44481;BME280;30184;42.018;23.670;2022-11-28T05:53:51;91854.97;;;1.47;93.17
44481;BME280;30184;42.018;23.670;2022-11-28T05:56:20;91851.19;;;1.48;93.31
44481;BME280;30184;42.018;23.670;2022-11-28T05:58:53;91859.59;;;1.50;93.00
44481;BME280;30184;42.018;23.670;2022-11-28T06:01:23;91855.38;;;1.49;93.02
44481;BME280;30184;42.018;23.670;2022-11-28T06:03:54;91849.66;;;1.50;92.80
44481;BME280;30184;42.018;23.670;2022-11-28T06:06:29;91852.69;;;1.49;92.81
44481;BME280;30184;42.018;23.670;2022-11-28T06:08:58;91850.00;;;1.49;92.77
44481;BME280;30184;42.018;23.670;2022-11-28T06:11:29;91863.44;;;1.53;92.74
44481;BME280;30184;42.018;23.670;2022-11-28T06:14:00;91856.97;;;1.54;92.58
44481;BME280;30184;42.018;23.670;2022-11-28T06:16:30;91855.06;;;1.58;92.64
44481;BME280;30184;42.018;23.670;2022-11-28T06:19:01;91856.53;;;1.48;92.33
44481;BME280;30184;42.018;23.670;2022-11-28T06:21:31;91854.72;;;1.59;92.22
44481;BME280;30184;42.018;23.670;2022-11-28T06:24:00;91857.78;;;1.61;92.17
44481;BME280;30184;42.018;23.670;2022-11-28T06:26:29;91846.72;;;1.63;92.22
44481;BME280;30184;42.018;23.670;2022-11-28T06:29:00;91860.94;;;1.70;91.97
44481;BME280;30184;42.018;23.670;2022-11-28T06:31:29;91853.75;;;1.74;92.09
44481;BME280;30184;42.018;23.670;2022-11-28T06:33:58;91843.03;;;1.74;91.67
44481;BME280;30184;42.018;23.670;2022-11-28T06:36:27;91831.88;;;1.65;91.46
44481;BME280;30184;42.018;23.670;2022-11-28T06:38:57;91854.88;;;1.77;91.21
44481;BME280;30184;42.018;23.670;2022-11-28T06:41:26;91850.72;;;1.79;91.23
44481;BME280;30184;42.018;23.670;2022-11-28T06:43:55;91855.34;;;1.82;91.17
44481;BME280;30184;42.018;23.670;2022-11-28T06:46:26;91849.25;;;1.85;91.00
44481;BME280;30184;42.018;23.670;2022-11-28T06:48:55;91835.59;;;1.94;90.99
44481;BME280;30184;42.018;23.670;2022-11-28T06:51:24;91834.06;;;1.97;90.66
44481;BME280;30184;42.018;23.670;2022-11-28T06:53:53;91842.13;;;2.00;90.26
44481;BME280;30184;42.018;23.670;2022-11-28T06:56:22;91840.28;;;2.08;90.13
44481;BME280;30184;42.018;23.670;2022-11-28T06:58:53;91842.22;;;2.14;89.88
44481;BME280;30184;42.018;23.670;2022-11-28T07:01:26;91845.00;;;2.21;89.47
44481;BME280;30184;42.018;23.670;2022-11-28T07:03:55;91835.44;;;2.24;89.11
44481;BME280;30184;42.018;23.670;2022-11-28T07:06:25;91838.19;;;2.31;88.83
44481;BME280;30184;42.018;23.670;2022-11-28T07:08:56;91855.72;;;2.25;88.21
44481;BME280;30184;42.018;23.670;2022-11-28T07:11:27;91836.69;;;2.37;87.32
44481;BME280;30184;42.018;23.670;2022-11-28T07:13:57;91835.97;;;2.44;87.24
44481;BME280;30184;42.018;23.670;2022-11-28T07:16:31;91828.75;;;2.51;86.77
44481;BME280;30184;42.018;23.670;2022-11-28T07:19:01;91826.50;;;2.60;86.72
44481;BME280;30184;42.018;23.670;2022-11-28T07:21:30;91816.63;;;2.68;86.56
44481;BME280;30184;42.018;23.670;2022-11-28T07:23:59;91817.06;;;2.81;85.83
44481;BME280;30184;42.018;23.670;2022-11-28T07:26:29;91823.63;;;2.90;85.22
44481;BME280;30184;42.018;23.670;2022-11-28T07:28:57;91813.31;;;2.96;83.56
44481;BME280;30184;42.018;23.670;2022-11-28T07:31:28;91822.53;;;3.02;83.92
44481;BME280;30184;42.018;23.670;2022-11-28T07:34:00;91814.56;;;3.13;83.75
44481;BME280;30184;42.018;23.670;2022-11-28T07:36:30;91813.44;;;3.24;83.37
44481;BME280;30184;42.018;23.670;2022-11-28T07:39:00;91816.19;;;3.38;83.33
44481;BME280;30184;42.018;23.670;2022-11-28T07:41:30;91824.25;;;3.49;81.66
44481;BME280;30184;42.018;23.670;2022-11-28T07:44:01;91805.50;;;3.60;81.26
44481;BME280;30184;42.018;23.670;2022-11-28T07:46:32;91799.75;;;3.58;80.80
44481;BME280;30184;42.018;23.670;2022-11-28T07:49:02;91813.59;;;3.78;79.61
44481;BME280;30184;42.018;23.670;2022-11-28T07:51:32;91813.59;;;3.85;79.33
44481;BME280;30184;42.018;23.670;2022-11-28T07:54:02;91832.03;;;4.00;79.49
44481;BME280;30184;42.018;23.670;2022-11-28T07:56:33;91801.75;;;4.03;78.99
44481;BME280;30184;42.018;23.670;2022-11-28T07:59:23;91810.56;;;4.22;78.19
44481;BME280;30184;42.018;23.670;2022-11-28T08:01:53;91808.66;;;4.33;78.00
44481;BME280;30184;42.018;23.670;2022-11-28T08:04:22;91809.03;;;4.28;75.65
44481;BME280;30184;42.018;23.670;2022-11-28T08:06:51;91805.59;;;4.24;75.11
44481;BME280;30184;42.018;23.670;2022-11-28T08:09:20;91807.88;;;4.22;75.15
44481;BME280;30184;42.018;23.670;2022-11-28T08:11:49;91805.22;;;4.15;75.01
44481;BME280;30184;42.018;23.670;2022-11-28T08:14:19;91807.50;;;4.20;75.03
44481;BME280;30184;42.018;23.670;2022-11-28T08:16:48;91797.16;;;4.15;75.06
44481;BME280;30184;42.018;23.670;2022-11-28T08:19:18;91807.50;;;4.12;72.01
44481;BME280;30184;42.018;23.670;2022-11-28T08:21:47;91809.81;;;4.21;74.16
44481;BME280;30184;42.018;23.670;2022-11-28T08:24:17;91812.47;;;4.28;73.71
44481;BME280;30184;42.018;23.670;2022-11-28T08:26:46;91808.66;;;4.29;72.83
44481;BME280;30184;42.018;23.670;2022-11-28T08:29:15;91812.50;;;4.25;70.39
44481;BME280;30184;42.018;23.670;2022-11-28T08:31:44;91809.03;;;4.21;69.99
44481;BME280;30184;42.018;23.670;2022-11-28T08:34:13;91809.81;;;4.25;71.04
44481;BME280;30184;42.018;23.670;2022-11-28T08:36:43;91805.22;;;4.25;72.50
44481;BME280;30184;42.018;23.670;2022-11-28T08:39:13;91803.66;;;4.28;71.83
44481;BME280;30184;42.018;23.670;2022-11-28T08:41:51;91797.91;;;4.36;71.67
44481;BME280;30184;42.018;23.670;2022-11-28T08:44:20;91792.13;;;4.45;71.59
44481;BME280;30184;42.018;23.670;2022-11-28T08:46:49;91792.16;;;4.52;71.45
44481;BME280;30184;42.018;23.670;2022-11-28T08:49:19;91793.28;;;4.58;71.14
44481;BME280;30184;42.018;23.670;2022-11-28T08:51:49;91784.44;;;4.61;70.74
44481;BME280;30184;42.018;23.670;2022-11-28T08:54:18;91782.91;;;4.67;71.09
44481;BME280;30184;42.018;23.670;2022-11-28T08:56:47;91764.47;;;4.66;71.20
44481;BME280;30184;42.018;23.670;2022-11-28T08:59:16;91778.28;;;4.78;71.52
44481;BME280;30184;42.018;23.670;2022-11-28T09:01:45;91760.66;;;4.63;70.50
44481;BME280;30184;42.018;23.670;2022-11-28T09:04:14;91774.44;;;4.76;71.35
44481;BME280;30184;42.018;23.670;2022-11-28T09:06:44;91779.00;;;4.82;70.97
44481;BME280;30184;42.018;23.670;2022-11-28T09:09:15;91777.88;;;4.87;69.75
44481;BME280;30184;42.018;23.670;2022-11-28T09:11:44;91746.00;;;4.75;70.63
44481;BME280;30184;42.018;23.670;2022-11-28T09:14:13;91760.94;;;4.94;70.73
44481;BME280;30184;42.018;23.670;2022-11-28T09:16:42;91765.94;;;4.95;70.67
44481;BME280;30184;42.018;23.670;2022-11-28T09:19:11;91764.03;;;4.88;70.70
44481;BME280;30184;42.018;23.670;2022-11-28T09:21:40;91767.50;;;4.82;69.95
44481;BME280;30184;42.018;23.670;2022-11-28T09:24:09;91759.81;;;4.84;70.03
44481;BME280;30184;42.018;23.670;2022-11-28T09:26:42;91805.56;;;4.66;69.91
44481;BME280;30184;42.018;23.670;2022-11-28T09:29:11;91762.13;;;4.78;68.88
44481;BME280;30184;42.018;23.670;2022-11-28T09:31:40;91764.84;;;4.78;70.44
44481;BME280;30184;42.018;23.670;2022-11-28T09:34:12;91754.84;;;4.79;69.50
44481;BME280;30184;42.018;23.670;2022-11-28T09:36:41;91757.50;;;4.82;70.23
44481;BME280;30184;42.018;23.670;2022-11-28T09:39:10;91752.56;;;4.70;69.42
44481;BME280;30184;42.018;23.670;2022-11-28T09:41:48;91746.03;;;4.68;70.22
44481;BME280;30184;42.018;23.670;2022-11-28T09:44:25;91671.66;;;4.19;69.37
44481;BME280;30184;42.018;23.670;2022-11-28T09:46:56;91741.44;;;4.68;69.49
44481;BME280;30184;42.018;23.670;2022-11-28T09:49:30;91735.31;;;4.57;69.20
44481;BME280;30184;42.018;23.670;2022-11-28T09:52:15;91762.56;;;4.59;69.66
44481;BME280;30184;42.018;23.670;2022-11-28T09:54:52;91729.91;;;4.64;70.04
44481;BME280;30184;42.018;23.670;2022-11-28T09:57:32;91723.41;;;4.62;70.25
44481;BME280;30184;42.018;23.670;2022-11-28T10:00:02;91718.44;;;4.53;69.66
44481;BME280;30184;42.018;23.670;2022-11-28T10:02:42;91718.44;;;4.53;70.39
44481;BME280;30184;42.018;23.670;2022-11-28T10:05:19;91701.13;;;4.58;70.66
44481;BME280;30184;42.018;23.670;2022-11-28T10:08:01;91710.69;;;4.73;70.04
44481;BME280;30184;42.018;23.670;2022-11-28T10:10:37;91706.44;;;4.75;69.34
44481;BME280;30184;42.018;23.670;2022-11-28T10:13:14;91704.88;;;4.85;69.70
44481;BME280;30184;42.018;23.670;2022-11-28T10:15:53;91706.41;;;4.90;68.44
44481;BME280;30184;42.018;23.670;2022-11-28T10:18:35;91699.91;;;4.83;68.01
44481;BME280;30184;42.018;23.670;2022-11-28T10:21:23;91700.69;;;4.80;68.41
44481;BME280;30184;42.018;23.670;2022-11-28T10:23:55;91702.63;;;4.80;69.58
44481;BME280;30184;42.018;23.670;2022-11-28T10:26:31;91693.00;;;4.75;69.31
44481;BME280;30184;42.018;23.670;2022-11-28T10:29:16;91694.56;;;4.73;70.32
44481;BME280;30184;42.018;23.670;2022-11-28T10:31:51;91694.59;;;4.66;69.75
44481;BME280;30184;42.018;23.670;2022-11-28T10:34:27;91681.94;;;4.63;70.11
44481;BME280;30184;42.018;23.670;2022-11-28T10:37:00;91688.44;;;4.72;70.73
44481;BME280;30184;42.018;23.670;2022-11-28T10:39:32;91684.19;;;4.75;70.71
44481;BME280;30184;42.018;23.670;2022-11-28T10:42:08;91689.13;;;4.83;69.45
44481;BME280;30184;42.018;23.670;2022-11-28T10:44:55;91668.44;;;4.73;69.35
44481;BME280;30184;42.018;23.670;2022-11-28T10:47:42;91558.94;;;4.04;69.42
44481;BME280;30184;42.018;23.670;2022-11-28T10:50:20;91671.13;;;4.77;69.48
44481;BME280;30184;42.018;23.670;2022-11-28T10:52:58;91676.91;;;4.72;70.19
44481;BME280;30184;42.018;23.670;2022-11-28T10:55:35;91674.59;;;4.74;71.19
44481;BME280;30184;42.018;23.670;2022-11-28T10:58:14;91670.00;;;4.71;70.56
44481;BME280;30184;42.018;23.670;2022-11-28T11:00:47;91698.41;;;4.68;70.92
44481;BME280;30184;42.018;23.670;2022-11-28T11:03:26;91659.72;;;4.52;70.44
44481;BME280;30184;42.018;23.670;2022-11-28T11:05:57;91655.50;;;4.43;71.35
44481;BME280;30184;42.018;23.670;2022-11-28T11:08:27;91657.03;;;4.44;72.39
44481;BME280;30184;42.018;23.670;2022-11-28T11:11:00;91654.34;;;4.48;72.49
44481;BME280;30184;42.018;23.670;2022-11-28T11:13:32;91653.97;;;4.42;72.23
44481;BME280;30184;42.018;23.670;2022-11-28T11:16:06;91647.88;;;4.35;72.29
44481;BME280;30184;42.018;23.670;2022-11-28T11:18:50;91640.97;;;4.20;72.88
44481;BME280;30184;42.018;23.670;2022-11-28T11:21:20;91643.66;;;4.20;73.31
44481;BME280;30184;42.018;23.670;2022-11-28T11:24:10;91640.59;;;4.18;73.53
44481;BME280;30184;42.018;23.670;2022-11-28T11:26:42;91631.03;;;4.13;74.28
44481;BME280;30184;42.018;23.670;2022-11-28T11:29:20;91636.41;;;4.13;74.49
44481;BME280;30184;42.018;23.670;2022-11-28T11:31:52;91641.41;;;4.07;74.60
44481;BME280;30184;42.018;23.670;2022-11-28T11:34:22;91636.41;;;4.13;74.90
44481;BME280;30184;42.018;23.670;2022-11-28T11:37:19;91636.78;;;4.15;74.23
44481;BME280;30184;42.018;23.670;2022-11-28T11:39:50;91636.75;;;4.22;74.55
44481;BME280;30184;42.018;23.670;2022-11-28T11:42:20;91622.19;;;4.12;74.02
44481;BME280;30184;42.018;23.670;2022-11-28T11:44:50;91529.16;;;3.46;73.56
44481;BME280;30184;42.018;23.670;2022-11-28T11:47:38;91628.31;;;4.20;73.96
44481;BME280;30184;42.018;23.670;2022-11-28T11:50:15;91626.00;;;4.22;73.92
44481;BME280;30184;42.018;23.670;2022-11-28T11:52:59;91627.16;;;4.21;73.91
44481;BME280;30184;42.018;23.670;2022-11-28T11:55:30;91624.47;;;4.21;73.40
44481;BME280;30184;42.018;23.670;2022-11-28T11:58:02;91625.63;;;4.20;73.40
44481;BME280;30184;42.018;23.670;2022-11-28T12:00:36;91627.94;;;4.25;73.53
44481;BME280;30184;42.018;23.670;2022-11-28T12:03:14;91619.50;;;4.20;72.87
44481;BME280;30184;42.018;23.670;2022-11-28T12:05:50;91627.97;;;4.15;73.45
44481;BME280;30184;42.018;23.670;2022-11-28T12:08:45;91635.25;;;4.10;73.39
44481;BME280;30184;42.018;23.670;2022-11-28T12:11:20;91637.19;;;4.06;74.43
44481;BME280;30184;42.018;23.670;2022-11-28T12:13:51;91625.28;;;4.04;74.53
44481;BME280;30184;42.018;23.670;2022-11-28T12:16:33;91635.66;;;4.02;74.51
44481;BME280;30184;42.018;23.670;2022-11-28T12:19:11;91637.19;;;3.96;74.19
44481;BME280;30184;42.018;23.670;2022-11-28T12:21:52;91632.59;;;3.86;75.02
44481;BME280;30184;42.018;23.670;2022-11-28T12:24:32;91624.16;;;3.80;75.77
44481;BME280;30184;42.018;23.670;2022-11-28T12:27:16;91606.56;;;3.65;74.75
44481;BME280;30184;42.018;23.670;2022-11-28T12:29:52;91638.00;;;3.89;75.49
44481;BME280;30184;42.018;23.670;2022-11-28T12:32:34;91638.75;;;3.86;74.73
44481;BME280;30184;42.018;23.670;2022-11-28T12:35:20;91639.50;;;3.83;74.82
44481;BME280;30184;42.018;23.670;2022-11-28T12:37:57;91627.25;;;3.64;75.51
44481;BME280;30184;42.018;23.670;2022-11-28T12:40:43;91641.44;;;3.72;75.89
44481;BME280;30184;42.018;23.670;2022-11-28T12:43:25;91641.06;;;3.66;75.63
44481;BME280;30184;42.018;23.670;2022-11-28T12:46:04;91633.75;;;3.53;74.93
44481;BME280;30184;42.018;23.670;2022-11-28T12:48:46;91663.28;;;3.63;75.45
44481;BME280;30184;42.018;23.670;2022-11-28T12:51:30;91649.50;;;3.58;75.50
44481;BME280;30184;42.018;23.670;2022-11-28T12:54:15;91648.72;;;3.54;75.92
44481;BME280;30184;42.018;23.670;2022-11-28T12:56:57;91643.00;;;3.52;76.20
44481;BME280;30184;42.018;23.670;2022-11-28T12:59:37;91640.28;;;3.48;76.00
44481;BME280;30184;42.018;23.670;2022-11-28T13:02:23;91647.19;;;3.42;76.29
44481;BME280;30184;42.018;23.670;2022-11-28T13:05:05;91651.03;;;3.37;75.82
44481;BME280;30184;42.018;23.670;2022-11-28T13:07:44;91656.38;;;3.37;76.01
44481;BME280;30184;42.018;23.670;2022-11-28T13:10:22;91654.09;;;3.32;76.37
44481;BME280;30184;42.018;23.670;2022-11-28T13:12:57;91656.75;;;3.36;77.51
44481;BME280;30184;42.018;23.670;2022-11-28T13:15:43;91655.22;;;3.35;77.82
44481;BME280;30184;42.018;23.670;2022-11-28T13:18:25;91645.25;;;3.35;77.42
44481;BME280;30184;42.018;23.670;2022-11-28T13:21:00;91649.50;;;3.33;76.80
44481;BME280;30184;42.018;23.670;2022-11-28T13:23:42;91655.63;;;3.33;76.59
44481;BME280;30184;42.018;23.670;2022-11-28T13:26:16;91642.19;;;3.23;76.19
44481;BME280;30184;42.018;23.670;2022-11-28T13:28:53;91639.50;;;3.16;77.45
44481;BME280;30184;42.018;23.670;2022-11-28T13:31:26;91658.66;;;3.28;76.12
44481;BME280;30184;42.018;23.670;2022-11-28T13:33:59;91655.22;;;3.28;76.46
44481;BME280;30184;42.018;23.670;2022-11-28T13:36:35;91649.09;;;3.24;76.83